MET: Información y Pronóstico Aeronáutico

///////////////////////////////////////////////////////////////////////////////////////////////////////////////////////////////////////////////////////////////////////////////////////////////////////////////////////////////////////////////

Member for

1 año 4 meses
Enviado por meteorologia el Jue, 23/11/2017 - 11:39
20-11

20 DE NOVIEMBRE 2019

INFORMACION METEOROLOGICA AERONAUTICA (METAR) 18:00 UTC

Aeropuerto AEROPARQUE J. NEWBERY

20 - 18:00               METAR SABE 201800Z 07006KT CAVOK 31/20 Q1012 NOSIG =

Aeropuerto BAHIA BLANCA

20 - 18:00               METAR SAZB 201800Z 16013KT CAVOK 23/01 Q1017 =

Aeropuerto BARILOCHE

20 - 18:00               METAR SAZS 201800Z 29016KT CAVOK 18/M08 Q1016 =

Aeropuerto CATAMARCA

20 - 18:00               METAR SANC 201800Z 02018G28KT 9999 FEW070TCU BKN090 39/13 Q1006 =

Aeropuerto CHAPELCO

20 - 18:00               METAR SAZY 201800Z 25018KT 9999 FEW045 FEW100 BKN200 21/M03 Q1014 =

Aeropuerto COMODORO RIVADAVIA

20 - 18:00               METAR SAVC 201800Z 27020G34KT 210V320 9999 BKN045 22/M04 Q1010 =

Aeropuerto CORDOBA

20 - 18:01               METAR SACO 201800Z 03011KT 360V070 9999 SCT034 FEW050CB 32/18 Q1010 TEMPO 05015KT 7000 SHRA BKN025 FEW035CB =

Aeropuerto CORRIENTES

20 - 18:00               METAR SARC 201800Z 11004KT 6000 NSC 37/22 Q1009 =

Aeropuerto EL CALAFATE

20 - 18:00               METAR SAWC 201800Z 27018KT 9999 FEW030 SCT090 12/M04 Q1005 =

Aeropuerto EL PALOMAR

20 - 18:00               METAR SADP 201800Z VRB06KT 9999 FEW040 34/16 Q1012 =

Aeropuerto ESQUEL

20 - 18:00               METAR SAVE 201800Z 27015KT CAVOK 16/05 Q1015 =

Aeropuerto EZEIZA

20 - 18:00               METAR SAEZ 201700Z 35005KT CAVOK 34/17 Q1012 NOSIG =

Aeropuerto FORMOSA

20 - 18:00               METAR SARF 201800Z 36006KT CAVOK 38/20 Q1009 =

Aeropuerto IGUAZU/CATARATAS

20 - 18:00               METAR SARI 201800Z 09004KT 9999 FEW030 35/19 Q1012 =

Aeropuerto JUJUY

20 - 18:00               METAR SASJ 201800Z 05013KT 9999 FEW035TCU FEW045CB 37/12 Q1010 =

Aeropuerto LA RIOJA

20 - 18:00               METAR SANL 201800Z 23013KT 9999 TS SCT040 FEW045CB FEW050 29/24 Q1008 =

Aeropuerto MALARGUE

20 - 18:00               METAR SAMM 201800Z 09005KT CAVOK 29/M01 Q1017 =

Aeropuerto MAR DEL PLATA

20 - 18:00               METAR SAZM 201800Z 16019KT CAVOK 19/07 Q1015 =

Aeropuerto MENDOZA

20 - 18:00               METAR SAME 201800Z 09009KT CAVOK 34/09 Q1011 =

Aeropuerto MORON

20 - 18:00               METAR SADM 201800Z 36004KT 9999 FEW035 34/19 Q1011 =

Aeropuerto NEUQUEN

20 - 18:00               METAR SAZN 201800Z 36006KT CAVOK 27/06 Q1013 =

Aeropuerto PARANA

20 - 17:00               METAR SAAP 201700Z 05010KT CAVOK 34/16 Q1012 =

Aeropuerto POSADAS

20 - 18:00               METAR SARP 201800Z 29005KT 9999 FEW030 36/19 Q1011 =

Aeropuerto PUERTO MADRYN

20 - 18:00               METAR SAVY 201800Z 29006KT 9999 FEW035 23/M02 Q1014 =

Aeropuerto RECONQUISTA

20 - 18:00               METAR SATR 201800Z 09008KT 9999 FEW035TCU 36/23 Q1009 =

Aeropuerto RESISTENCIA

20 - 18:00               METAR SARE 201800Z 36004KT 280V060 CAVOK 37/20 Q1008 =

Aeropuerto RIO CUARTO

20 - 18:00               METAR SAOC 201800Z 36005KT 9999 FEW030 SCT040 33/15 Q1010 RMK ESTIMATED WIND =

Aeropuerto RIO GALLEGOS

20 - 18:00               METAR SAWG 201800Z 25023G33KT 9999 BKN030 15/07 Q1002 =

Aeropuerto RIO GRANDE

20 - 18:00               METAR SAWE 201800Z 25021G31KT 9999 SCT025 12/M01 Q0997 =

Aeropuerto ROSARIO

20 - 18:00               METAR SAAR 201800Z 05007KT CAVOK 35/12 Q1010 =

Aeropuerto SALTA

20 - 18:00               METAR SASA 201800Z 05010KT 9999 FEW030 33/11 Q1013 =

Aeropuerto SAN FERNANDO

20 - 18:00               METAR SADF 201800Z 29006KT CAVOK 35/19 Q1011 =

Aeropuerto SAN JUAN

20 - 18:00               METAR SANU 201800Z 18015KT 9999 FEW040TCU 35/15 Q1010 =

Aeropuerto SAN LUIS

20 - 18:00               METAR SAOU 201800Z 09007KT 9999 FEW035 SCT040 34/17 Q1012 =

Aeropuerto SAN RAFAEL

20 - 18:00               METAR SAMR 201800Z 11010KT 9999 SCT030 32/07 Q1014 =

Aeropuerto SANTA ROSA

20 - 18:00               METAR SAZR 201800Z 18009KT CAVOK 32/10 Q1013 =

Aeropuerto SANTIAGO DEL ESTERO

20 - 18:00               METAR SANE 201800Z 05010G34KT 9999 FEW035TCU 42/16 Q1005 =

Aeropuerto SAUCE VIEJO

20 - 18:00               METAR SAAV 201800Z 11007KT CAVOK 34/17 Q1010 =

Aeropuerto TANDIL

20 - 18:00               METAR SAZT 201800Z 16013KT 9999 FEW045CB 29/10 Q1013 =

Aeropuerto TERMAS DE RIO HONDO

20 - 18:00               METAR SANR 201800Z 23010KT 9999 SCT035 36/22 Q1005 =

Aeropuerto TRELEW

20 - 18:00               METAR SAVT 201800Z 32012KT 9999 FEW035 23/M08 Q1014 =

Aeropuerto TUCUMAN

20 - 18:00               METAR SANT 201800Z 23010KT 8000 FEW040 FEW050CB 37/22 Q1006 =

Aeropuerto USHUAIA

20 - 18:00               METAR SAWH 201800Z 23022KT 9999 VCSH FEW030 BKN040 07/01 Q0996 =

Aeropuerto VIEDMA

20 - 18:00               METAR SAVV 201800Z 11006KT 060V190 CAVOK 21/00 Q1016 =

Aeropuerto VILLA REYNOLDS

20 - 18:00               METAR SAOR 201800Z 36005KT 9999 FEW025 35/15 Q1011 =

 PRONOSTICO DE AERODROMO (TAF) 17:00 UTC

Estación AEROPARQUE J. NEWBERY

15 - 17:00               TAF SABE 151700Z 1518/1618 05010KT CAVOK TX28/1618Z TN20/1610Z BECMG 1523/1601 35010KT BECMG 1611/1613 27015KT 4000 TSRA SCT035CB BKN040 BECMG 1615/1617 33015KT CAVOK =

Estación BAHIA BLANCA

15 - 17:48               SAZB 151748Z 1518/1618 29015KT CAVOK TX34/1518Z TN18/1610Z BECMG 1600/1603 29010KT 9999 SCT050 PROB30 TEMPO 1604/1607 8000 RA SCT030 FEW040TCU SCT050 BECMG 1612/1614 18010KT CAVOK =

Estación BARILOCHE

15 - 17:00               TAF SAZS 151700Z 1518/1618 29020G30KT 8000 -RA SCT030 BKN050 TX17/1619Z TN04/1610Z BECMG 1520/1522 26020KT 9999 NSW SCT030 BECMG 1602/1604 26010KT 9999 FEW020 BECMG 1612/16115 30020KT CAVOK =

Estación CATAMARCA

15 - 17:00               TAF SANC 151700Z 1518/1618 36015G25KT 9999 SCT045 FEW050TCU TX38/1618Z TN24/1610Z BECMG 1603/1606 02015KT 9999 SCT045 =

Estación CHAPELCO

15 - 17:48               SAZY 151748Z 1518/1618 23015G25KT 7000 -RA FEW020 BKN030 TX19/1517Z TN06/1610Z BECMG 1520/1523 9999 SCT040 BECMG 1600/1602 27010G20KT BECMG 1607/1609 27015G25KT CAVOK =

Estación COMODORO RIVADAVIA

15 - 17:00               TAF SAVC 151700Z 1518/1618 29035G50KT 0800 DU SCT030 BKN090 TX22/1518Z TN11/1609Z BECMG 1519/1521 27030G40KT 2000 DU NSC PROB40 TEMPO 1605/1610 27030G45KT BECMG 1614/1616 29020G30KT CAVOK =

Estación CORDOBA

15 - 17:00               TAF SACO 151700Z 1518/1618 02015KT 9999 SCT030 FEW040TCU TX35/1618Z TN18/1610Z BECMG 1600/1603 36010KT 9999 SCT030 BECMG 1608/1611 VRB03KT =

Estación CORRIENTES

15 - 17:00               TAF SARC 151700Z 1518/1618 14010KT CAVOK TX33/1618Z TN19/1610Z =

Estación EL CALAFATE

15 - 17:00               TAF SAWC 151700Z 1518/1618 27015KT 9999 SCT020 BKN060 TX15/1518Z TN06/1510Z BECMG 1604/1606 VRB05KT CAVOK =

Estación EL PALOMAR

15 - 17:00               TAF SADP 151700Z 1518/1618 02010KT CAVOK TX30/1518Z TN19/1609Z BECMG 1602/1604 9999 SCT040 BECMG 1611/1613 30015KT 8000 RA BKN030 TEMPO 1613/1615 7000 +RA BKN030 FEW040TCU BECMG 1616/1618 9999 SCT040 =

Estación ESQUEL

15 - 17:00               TAF SAVE 151700Z 1518/1618 29020G30KT 9999 DZ SCT035 TX16/1518Z TN02/1610Z BECMG 1519/1521 27015KT CAVOK BECMG 1523/1601 32010KT =

Estación EZEIZA

15 - 17:00               TAF SAEZ 151700Z 1518/1618 34010KT CAVOK TX30/1518Z TN19/1609Z BECMG 1602/1604 9999 SCT040 BECMG 1612/1614 34015KT 8000 RA BKN030 TEMPO 1613/1615 7000 +RA BKN030 FEW040TCU BECMG 1616/1618 9999 SCT040 =

Estación FORMOSA

15 - 17:00               TAF SARF 151700Z 1518/1618 16005KT CAVOK TX34/1618Z TN20/1610Z =

Estación IGUAZU/CATARATAS

15 - 17:00               TAF SARI 151700Z 1518/1618 02005KT CAVOK TX32/1618Z TN21/1610Z =

Estación JUJUY

15 - 17:00               TAF SASJ 151700Z 1518/1618 05015KT 9999 SCT030 TX33/1618Z TN16/1610Z BECMG 1600/1603 29005KT BECMG 1606/1609 20005KT 5000 BR NSC BECMG 1612/1615 05010KT 9999 NSW SCT030 =

Estación LA RIOJA

15 - 17:00               TAF SANL 151700Z 1518/1618 23005KT 9999 SCT040 FEW050TCU TX38/1618Z TN23/1610Z BECMG 1521/1600 07005KT CAVOK BECMG 1600/1603 20010KT =

Estación MAR DEL PLATA

15 - 17:00               TAF SAZM 151700Z 1518/1618 34010KT CAVOK TX28/1518Z TN10/1610Z BECMG 1606/1609 32015KT 7000 RA SCT018 BKN040 BECMG 1611/1614 9999 BKN020 BKN050 BECMG 1615/1617 18010KT 6000 RA SCT020 FEW030TCU BKN040 =

Estación MENDOZA

15 - 17:00               TAF SAME 151700Z 1518/1618 14010KT 9999 FEW040 TX35/1520Z TN21/1610Z BECMG 1608/1610 16020KT BECMG 1614/1616 16010KT CAVOK =

Estación NEUQUEN

15 - 17:00               TAF SAZN 151700Z 1518/1618 27020G35KT CAVOK TX31/1619Z TN13/1610Z BECMG 1523/1602 24020KT BECMG 1606/1609 20010KT CAVOK BECMG 1613/1616 30010KT =

Estación PARANA

15 - 17:48               SAAP 151748Z 1518/1618 36010KT CAVOK TX33/1618Z TN18/1609Z BECMG 1610/1612 36015KT =

Estación POSADAS

15 - 17:00               TAF SARP 151700Z 1518/1618 14005KT CAVOK TX32/1618Z TN18/1610Z =

Estación RESISTENCIA

15 - 17:00               TAF SARE 151700Z 1518/1618 14010KT CAVOK TX34/1618Z TN19/1610Z =

Estación RIO CUARTO

15 - 17:00               TAF SAOC 151700Z 1518/1618 36010KT 9999 SCT025 FEW040TCU TX33/1618Z TN18/1610Z BECMG 1521/1600 18015KT 5000 TSRA SCT030 FEW040CB BECMG 1606/1609 18010KT 9999 VCTS SCT030 FEW040CB =

Estación RIO GALLEGOS

15 - 17:00               TAF SAWG 151700Z 1518/1618 23015KT 9999 RA SCT010 BKN020 OVC050 TX15/1521Z TN04/1609Z BECMG 1519/1521 25015G30KT 9999 -DZ SCT030 BKN060 BECMG 1523/1601 27010KT CAVOK BECMG 1605/1607 36015KT BECMG 1610/1612 34020G30KT =

Estación RIO GRANDE

15 - 17:00               TAF SAWE 151700Z 1518/1618 32010KT 9999 DZ SCT015 OVC050 TX13/1518Z TN04/1610Z PROB40 TEMPO 1519/1523 27010KT 8000 SHRA SCT020 OVC050 BECMG 1601/1603 29015KT CAVOK BECMG 1608/1610 34015G35KT =

Estación ROSARIO

15 - 17:00               TAF SAAR 151700Z 1518/1618 01015KT CAVOK TX33/1519Z TN19/1610Z BECMG 1615/1617 33010KT 5000 TSRA SCT030CB BKN040 =

Estación SALTA

15 - 17:00               TAF SASA 151700Z 1518/1618 05010KT 9999 SCT030 FEW040TCU TX30/1618Z TN16/1610Z BECMG 1600/1603 VRB03KT BECMG 1606/1609 20005KT 5000 BR NSC BECMG 1612/1615 05010KT 9999 NSW SCT030 =

Estación SAN FERNANDO

15 - 17:00               TAF SADF 151700Z 1518/1618 05010KT CAVOK TX30/1519Z TN21/1609Z BECMG 1602/1604 36010KT BECMG 1610/1612 29010KT TEMPO 1613/1616 8000 -RA SCT030 BKN050 =

Estación SAN JUAN

15 - 17:00               TAF SANU 151700Z 1518/1618 VRB03KT CAVOK TX36/1520Z TN20/1610Z BECMG 1602/1604 36010KT BECMG 1611/1613 18020KT TEMPO 1612/1615 18025KT 7000 DU FEW040 =

Estación SAN LUIS

15 - 17:00               TAF SAOU 151700Z 1518/1618 36010KT 9999 FEW040 TX35/1519Z TN18/1609Z TEMPO 1603/1607 36020KT 9999 SCT040 BECMG 1607/1609 14010KT 9999 SCT040 PROB30 TEMPO 1609/1614 09010KT 6000 TSRA BKN030 FEW040CB =

Estación SAN RAFAEL

15 - 17:00               TAF SAMR 151700Z 1518/1618 03005KT CAVOK TX34/1520Z TN17/1610Z BECMG 1603/1605 16010KT BECMG 1613/1615 05010KT =

Estación SANTA ROSA

15 - 17:48               SAZR 151748Z 1518/1618 32015G25KT CAVOK TX36/1518Z TN20/1610Z BECMG 1522/1601 20010KT BECMG 1605/1607 20015KT 9999 FEW030 SCT045 BECMG 1612/1614 20010KT CAVOK =

Estación SANTIAGO DEL ESTERO

15 - 17:00               TAF SANE 151700Z 1518/1618 02015KT 9999 SCT030 FEW040TCU TX37/1618Z TN20/1610Z BECMG 1600/1603 05005KT 9999 SCT030 BECMG 1612/1615 02015KT 9999 SCT040 FEW045CB =

Estación SAUCE VIEJO

15 - 17:48               SAAV 151748Z 1518/1618 02010KT CAVOK TX33/1618Z TN18/1609Z BECMG 1611/1613 02015KT =

Estación TERMAS DE RIO HONDO

15 - 17:00               TAF SANR 151700Z 1518/1618 05010KT SCT030 TX36/1618Z TN23/1610Z BECMG 1600/1603 05005KT 9999 FEW040TCU =

Estación TRELEW

15 - 17:00               TAF SAVT 151700Z 1518/1618 34025G40KT 9999 RA SCT035 BKN090 TX29/1519Z TN11/1610Z BECMG 1520/1522 25015KT BECMG 2608/2610 27010KT =

Estación TUCUMAN

15 - 17:00               TAF SANT 151700Z 1518/1618 02015KT 9999 SCT035 FEW040TCU TX35/1618Z TN20/1610Z BECMG 1602/1605 36005KT 9999 SCT030 BECMG 1608/1611 VRB03KT =

Estación USHUAIA

15 - 17:00               TAF SAWH 151700Z 1518/1618 36005KT 9999 SCT035 BKN060 TX15/1516Z TN03/1609Z BECMG 1519/1521 18010KT 7000 SHRA SCT030 SCT040TCU OVC050 BECMG 1523/1601 36010KT 4000 -RABR SCT010 BKN025 OVC050 =

Estación VIEDMA

15 - 17:00               TAF SAVV 151700Z 1518/1618 29025G35KT CAVOK TX34/1519Z TN13/1610Z BECMG 1523/1601 20015KT BECMG 1604/1606 18010KT = Estación AEROPARQUE J. NEWBERY

20 - 17:00               TAF SABE 201700Z 2018/2118 02005KT CAVOK TX33/2019Z TN22/2109Z BECMG 2020/2022 10010KT BECMG 2105/2107 16010KT BECMG 2111/2113 09015KT SCT030 =

Estación BAHIA BLANCA

20 - 17:00               TAF SAZB 201700Z 2018/2118 11015KT CAVOK TX27/2118Z TN12/2110Z BECMG 2103/2106 05015KT BECMG 2109/2112 VRB05KT PROB30 2112/2118 27015G25KT 8000 SHRA SCT030 FEW050TCU =

Estación BARILOCHE

20 - 17:00               TAF SAZS 201700Z 2018/2118 29015KT CAVOK TX20/2118Z TN00/2109Z TEMPO 2018/2021 29015G25KT BECMG 2102/2104 VRB03KT =

Estación CATAMARCA

20 - 17:00               TAF SANC 201700Z 2018/2118 36010KT 7000 SHRA SCT040 FEW050CB TX40/2018Z TN24/2110Z BECMG 2100/2102 18005KT 9999 SCT045 =

Estación CHAPELCO

20 - 17:00               TAF SAZY 201700Z 2018/2118 25020KT CAVOK TX21/2118Z TN05/2109Z BECMG 2103/2106 27005KT BECMG 2109/2112 VRB05KT =

Estación COMODORO RIVADAVIA

20 - 17:00               TAF SAVC 201700Z 2018/2118 27020G30KT 9999 SCT030 FEW035TCU TX21/2019Z TN10/2110Z BECMG 2020/2022 27020KT FEW030 BECMG 2101/2103 27020G35KT CAVOK BECMG 2111/2113 25015KT =

Estación CORDOBA

20 - 17:00               TAF SACO 201700Z 2018/2118 05015KT 7000 SHRA SCT020 FEW035 TX35/2118Z TN20/2110Z BECMG 2020/2022 23015KT 5000 TSRA SCT025 FEW035CB BECMG 2100/2102 36010KT 9999 SCT030 BECMG 2114/2116 14015KT 9999 SCT020 FEW030CB =

Estación CORRIENTES

20 - 17:00               TAF SARC 201700Z 2018/2118 02010KT 7000 NSC TX38/2018Z TN26/2110Z =

Estación EL CALAFATE

20 - 17:00               TAF SAWC 201700Z 2018/2118 27010KT 9999 FEW030 SCT090 TX14/2019Z TN05/2110Z =

Estación EL PALOMAR

20 - 17:00               TAF SADP 201700Z 2018/2118 35008KT CAVOK TX34/2018Z TN18/2109Z BECMG 2020/2023 07005KT BECMG 2103/2106 14013KT PROB30 TEMPO 2015/2018 09012KT 9999 SCT030 FEW050CB =

Estación ESQUEL

20 - 17:00               TAF SAVE 201700Z 2018/2118 27010KT CAVOK TX17/2019Z TN01/2010Z BECMG 2023/2101 VRB05KT =

Estación EZEIZA

20 - 17:00               TAF SAEZ 201700Z 2018/2118 35008KT CAVOK TX34/2018Z TN18/2109Z BECMG 2020/2023 07005KT BECMG 2103/2106 14013KT PROB30 TEMPO 2015/2018 09012KT 9999 SCT030 FEW050CB =

Estación FORMOSA

20 - 17:00               TAF SARF 201700Z 2018/2118 02010KT CAVOK TX39/2018Z TN26/2110Z =

Estación IGUAZU/CATARATAS

20 - 17:00               TAF SARI 201700Z 2018/2118 07010KT 9999 FEW030 TX36/2018Z TN23/2110Z BECMG 2022/2024 VRB03KT CAVOK =

Estación JUJUY

20 - 17:00               TAF SASJ 201700Z 2018/2118 05015KT 9999 SCT030 FEW050CB TX36/2118Z TN23/2110Z PROB40 TEMPO 2123/2103 18005KT 7000 SHRA SCT030 FEW040CB BECMG 2104/2106 18005KT CAVOK =

Estación LA RIOJA

20 - 17:00               TAF SANL 201700Z 2018/2118 18010KT 7000 SHRA SCT040 FEW050CB TX38/2018Z TN24/2110Z BECMG 2023/2101 23010KT CAVOK =

Estación MAR DEL PLATA

20 - 17:00               TAF SAZM 201700Z 2018/2118 16015G25KT CAVOK TX24/2118Z TN14/2110Z BECMG 2103/2106 09010KT BECMG 2112/2115 05015KT 7000 RA BKN020 FEW045TCU OVC050 =

Estación MENDOZA

20 - 17:00               TAF SAME 201700Z 2018/2118 18010KT 9999 SCT040 FEW050TCU TX34/2020Z TN23/2110Z BECMG 2020/2022 16005KT 9999 BKN040 FEW050CB BECMG 2102/2104 14005KT 9999 6000 TSRA BKN030 FEW040CB BECMG 2107/2109 20005KT 9999 NSW BKN040 BECMG 2114/2116 14010KT 9999 SCT040 =

Estación NEUQUEN

20 - 17:00               TAF SAZN 201700Z 2018/2118 VRB05KT CAVOK TX28/2019Z TN14/2109Z BECMG 2102/2105 25010KT BECMG 2107/2108 VRB05KT =

Estación PARANA

20 - 17:00               TAF SAAP 201700Z 2018/2118 05007KT CAVOK TX35/2018Z TN24/2109Z BECMG 2100/2102 36010KT 9999 SCT040 TEMPO 2105/2109 34020KT 7000 -SHRA FEW045CB SCT050 BECMG 2109/2112 VRB05KT PROB30 2115/2118 02010KT 8000 -TSRA FEW040CB =

Estación POSADAS

20 - 17:00               TAF SARP 201700Z 2018/2118 01010KT CAVOK TX37/2018Z TN24/2110Z =

Estación RESISTENCIA

20 - 17:00               TAF SARE 201700Z 2018/2118 02010KT 7000 NSC TX38/2018Z TN26/2110Z =

Estación RIO CUARTO

20 - 17:00               TAF SAOC 201700Z 2018/2118 36010KT 9999 FEW040CB TX36/2018Z TN23/2110Z PROB40 TEMPO 2018/2022 5000 SHRA SCT030 FEW040CB BECMG 2023/2101 36010KT CAVOK BECMG 2116/2118 23020KT 5000 TSRA BKN020 FEW040CB =

Estación RIO GALLEGOS

20 - 17:00               TAF SAWG 201700Z 2018/2118 25020G30KT 9999 BKN030 TX15/2019Z TN05/2110Z PROB40 TEMPO 2018/2022 25015KT FEW035TCU BECMG 2023/2101 27010KT SCT030 =

Estación RIO GRANDE

20 - 17:00               TAF SAWE 201700Z 2018/2118 27020G30KT 9999 SCT020 TX13/2019Z TN04/2110Z BECMG 2023/2101 CAVOK BECMG 2113/2115 9999 BKN020 =

Estación ROSARIO

20 - 17:00               TAF SAAR 201700Z 2018/2118 05010KT CAVOK TX36/2019Z TN22/2109Z BECMG 2018/2020 SCT030 BECMG 2104/2106 VRB10KT BKN030 OVC100 TEMPO 2105/2119 VRB15KT 5000 TSRA SCT020 FEW045CB BKN045 OVC100 BECMG 2112/2114 36010KT CAVOK =

Estación SALTA

20 - 17:00               TAF SASA 201700Z 2018/2118 05015KT 9999 SCT030 FEW035CB TX34/2118Z TN21/2110Z PROB40 TEMPO 2022/2102 23005KT 7000 SHRA SCT030 FEW040CB BECMG 2104/2106 18005KT CAVOK =

Estación SAN FERNANDO

20 - 17:00               TAF SADF 201700Z 2018/2118 36010KT CAVOK TX35/2018Z TN21/2109Z BECMG 2022/2100 09010KT BECMG 2103/2105 16010KT 9999 SCT020 BKN100 BECMG 2115/2117 09010KT 7000 RA BKN020 FEW040TCU OVC050 =

Estación SAN JUAN

20 - 17:00               TAF SANU 201700Z 2018/2118 18010KT CAVOK TX38/2020Z TN24/2110Z BECMG 2020/2022 05010KT 9999 FEW040 FEW050CB BECMG 2101/2103 20010KT 6000 TSRA SCT035 FEW040CB BECMG 2108/2110 16005KT 9999 NSW SCT040 =

Estación SAN LUIS

20 - 17:00               TAF SAOU 201700Z 2018/2118 11010KT 9999 SCT040 TX33/2020Z TN21/2109Z BECMG 2020/2022 09010KT 9999 VCTS BKN030 FEW040CB BECMG 2101/2103 07010KT 6000 TSRA BKN020 FEW030CB =

Estación SAN RAFAEL

20 - 17:00               TAF SAMR 201700Z 2018/2118 11010KT 9999 FEW030 TX34/2020Z TN21/2110Z BECMG 2020/2022 05010KT 9999 SCT030 FEW040CB PROB30 TEMPO 2101/2105 14010KT 6000 TSRA BKN025 FEW035CB BECMG 2108/2110 16005KT 9999 SCT040 =

Estación SANTA ROSA

20 - 17:00               TAF SAZR 201700Z 2018/2118 16010KT CAVOK TX33/2018Z TN16/2110Z BECMG 2103/2106 09010KT BECMG 2109/2112 VRB05KT 9999 SCT030 SCT050 PROB30 TEMPO 2115/2118 7000 TSRA FEW045CB BKN050 =

Estación SANTIAGO DEL ESTERO

20 - 17:00               TAF SANE 201700Z 2018/2118 02010KT 9999 FEW040 TX40/2018Z TN24/2110Z TEMPO 2023/2103 18010KT 7000 SHRA SCT030 FEW040CB BECMG 2106/2108 14010KT CAVOK =

Estación SAUCE VIEJO

20 - 17:00               TAF SAAV 201700Z 2018/2118 05007KT CAVOK TX35/2018Z TN24/2109Z BECMG 2100/2102 36010KT 9999 SCT040 TEMPO 2105/2109 34020KT 7000 -SHRA FEW045CB SCT050 BECMG 2109/2112 VRB05KT PROB30 2115/2118 02010KT 8000 -TSRA FEW040CB =

Estación TERMAS DE RIO HONDO

20 - 17:00               TAF SANR 201700Z 2018/2118 23010KT 9999 FEW040 TX40/2018Z TN24/2110Z TEMPO 2023/2103 18010KT 7000 SHRA SCT030 FEW040CB BECMG 2106/2108 14010KT CAVOK =

Estación TRELEW

20 - 17:00               TAF SAVT 201700Z 2018/2118 27010KT CAVOK TX25/2019Z TN12/2110Z BECMG 20121/2023 02012KT PROB40 TEMPO 2104/2108 27010KT BECMG 2109/2111 23015KT =

Estación TUCUMAN

20 - 17:00               TAF SANT 201700Z 2018/2118 18005KT 8000 SCT035 TX40/2118Z TN24/2110Z BECMG 2019/2021 36015KT 8000 SCT030 FEW040CB TEMPO 2021/210 34015KT 7000 SHRA SCT025 FEW040CB BECMG 2102/2104 36010KT CAVOK =

Estación USHUAIA

20 - 17:00               TAF SAWH 201700Z 2018/2118 23020G30KT 9999 -SHRA BKN030 TX10/2019Z TN00/2110Z BECMG 2020/2021 25015KT BECMG 2101/2103 VRB05KT NSW SCT030 =

Estación VIEDMA

20 - 17:00               TAF SAVV 201700Z 2018/2118 18010KT CAVOK TX23/2019Z TN12/2110Z PROB40 TEMPO 2018/2022 VRB05KT BECMG 2023/2101 05015KT PROB40 TEMPO 2108/2112 VRB05KT 9999 SCT030 BKN090 BECMG 2113/2115 18015KT FEW030 SCT090 =